Time,TemperatureF,DewpointF,PressureIn,WindDirection,WindDirectionDegrees,WindSpeedMPH,WindSpeedGustMPH,Humidity,HourlyPrecipIn,Conditions,Clouds,dailyrainin,SoftwareType,DateUTC
2013-04-02 01:00:00,34.7,21.9,29.83,NW,315,15.0,24.0,59,0.00,,---,0.00,VWS V14.01,2013-04-02 05:00:00,
2013-04-02 01:10:00,34.5,21.7,29.83,NNW,338,18.0,29.0,59,0.00,,---,0.00,VWS V14.01,2013-04-02 05:10:00,
2013-04-02 01:20:00,34.3,21.9,29.84,NW,315,20.0,32.0,60,0.00,,---,0.00,VWS V14.01,2013-04-02 05:20:00,
2013-04-02 01:30:00,34.1,22.5,29.84,NW,315,17.0,31.0,62,0.00,,---,0.00,VWS V14.01,2013-04-02 05:30:00,
2013-04-02 01:40:00,33.9,22.3,29.84,NW,315,17.0,28.0,62,0.00,,---,0.00,VWS V14.01,2013-04-02 05:40:00,
2013-04-02 01:50:00,33.8,22.5,29.84,NW,315,17.0,28.0,63,0.00,,---,0.00,VWS V14.01,2013-04-02 05:50:00,
2013-04-02 02:00:00,33.6,22.4,29.84,NNW,338,19.0,33.0,63,0.00,,---,0.00,VWS V14.01,2013-04-02 06:00:00,
2013-04-02 02:20:00,33.4,21.4,29.84,NNW,338,21.0,32.0,61,0.00,,---,0.00,VWS V14.01,2013-04-02 06:20:00,
2013-04-02 02:30:00,33.2,20.8,29.84,NNW,338,20.0,29.0,60,0.00,,---,0.00,VWS V14.01,2013-04-02 06:30:00,
2013-04-02 02:40:00,33.0,20.2,29.85,NNW,338,19.0,31.0,59,0.00,,---,0.00,VWS V14.01,2013-04-02 06:40:00,
2013-04-02 03:00:00,32.6,20.7,29.85,NW,315,13.0,22.0,61,0.00,,---,0.00,VWS V14.01,2013-04-02 07:00:00,
2013-04-02 04:00:00,31.8,19.9,29.86,NW,315,13.0,20.0,61,0.00,,---,0.00,VWS V14.01,2013-04-02 08:00:00,
2013-04-02 04:10:00,31.6,20.1,29.86,NW,315,12.0,21.0,62,0.00,,---,0.00,VWS V14.01,2013-04-02 08:10:00,
2013-04-02 04:20:00,31.5,20.4,29.86,NW,315,10.0,17.0,63,0.00,,---,0.00,VWS V14.01,2013-04-02 08:20:00,
2013-04-02 04:50:00,31.5,21.1,29.87,WNW,292,10.0,15.0,65,0.00,,---,0.00,VWS V14.01,2013-04-02 08:50:00,
2013-04-02 05:00:00,31.5,21.1,29.87,WNW,292,9.0,15.0,65,0.00,,---,0.00,VWS V14.01,2013-04-02 09:00:00,
2013-04-02 05:10:00,31.5,21.8,29.87,WNW,292,7.0,14.0,67,0.00,,---,0.00,VWS V14.01,2013-04-02 09:10:00,
2013-04-02 05:20:00,31.6,21.6,29.87,WNW,292,9.0,15.0,66,0.00,,---,0.00,VWS V14.01,2013-04-02 09:20:00,
2013-04-02 06:00:00,32.0,21.2,29.88,West,270,11.0,18.0,64,0.00,,---,0.00,VWS V14.01,2013-04-02 10:00:00,
2013-04-02 06:40:00,32.5,21.3,29.89,West,270,11.0,20.0,63,0.00,,---,0.00,VWS V14.01,2013-04-02 10:40:00,
2013-04-02 06:50:00,32.9,22.1,29.90,WSW,248,12.0,19.0,64,0.00,,---,0.00,VWS V14.01,2013-04-02 10:50:00,
2013-04-02 07:00:00,33.0,21.0,29.90,WSW,248,12.0,20.0,61,0.00,,---,0.00,VWS V14.01,2013-04-02 11:00:00,
2013-04-02 07:30:00,33.8,20.2,29.91,West,270,12.0,21.0,57,0.00,,---,0.00,VWS V14.01,2013-04-02 11:30:00,
2013-04-02 07:40:00,34.2,19.3,29.91,West,270,14.0,22.0,54,0.00,,---,0.00,VWS V14.01,2013-04-02 11:40:00,
2013-04-02 07:50:00,34.8,20.3,29.91,West,270,15.0,24.0,55,0.00,,---,0.00,VWS V14.01,2013-04-02 11:50:00,
2013-04-02 08:50:00,36.7,20.3,29.92,West,270,17.0,30.0,51,0.00,,---,0.00,VWS V14.01,2013-04-02 12:50:00,
2013-04-02 09:00:00,36.9,22.7,29.92,West,270,17.0,25.0,56,0.00,,---,0.00,VWS V14.01,2013-04-02 13:00:00,
2013-04-02 09:10:00,36.2,21.2,29.92,West,270,18.0,30.0,54,0.00,,---,0.00,VWS V14.01,2013-04-02 13:10:00,
2013-04-02 09:30:00,36.4,20.9,29.92,West,270,20.0,32.0,53,0.00,,---,0.00,VWS V14.01,2013-04-02 13:30:00,
2013-04-02 09:50:00,36.3,20.4,29.92,West,270,19.0,30.0,52,0.00,,---,0.00,VWS V14.01,2013-04-02 13:50:00,
2013-04-02 10:20:00,37.8,22.7,29.92,West,270,14.0,25.0,54,0.00,,---,0.00,VWS V14.01,2013-04-02 14:20:00,
2013-04-02 11:50:00,38.3,20.4,29.91,WSW,248,20.0,33.0,48,0.00,,---,0.00,VWS V14.01,2013-04-02 15:50:00,
2013-04-02 13:00:00,38.6,19.1,29.89,WSW,248,23.0,34.0,45,0.00,,---,0.00,VWS V14.01,2013-04-02 17:00:00,
2013-04-02 13:10:00,39.0,19.5,29.89,WSW,248,24.0,36.0,45,0.00,,---,0.00,VWS V14.01,2013-04-02 17:10:00,
2013-04-02 13:20:00,38.9,20.4,29.89,WSW,248,24.0,37.0,47,0.00,,---,0.00,VWS V14.01,2013-04-02 17:20:00,
2013-04-02 13:30:00,39.1,20.1,29.89,WSW,248,22.0,33.0,46,0.00,,---,0.00,VWS V14.01,2013-04-02 17:30:00,
2013-04-02 13:40:00,39.5,21.5,29.88,WSW,248,22.0,33.0,48,0.00,,---,0.00,VWS V14.01,2013-04-02 17:40:00,
2013-04-02 13:50:00,39.4,19.8,29.88,WSW,248,24.0,35.0,45,0.00,,---,0.00,VWS V14.01,2013-04-02 17:50:00,
2013-04-02 14:00:00,39.3,20.8,29.88,WSW,248,24.0,33.0,47,0.00,,---,0.00,VWS V14.01,2013-04-02 18:00:00,
2013-04-02 14:10:00,40.1,20.5,29.87,WSW,248,23.0,34.0,45,0.00,,---,0.00,VWS V14.01,2013-04-02 18:10:00,
2013-04-02 14:40:00,40.3,21.2,29.87,WSW,248,23.0,35.0,46,0.00,,---,0.00,VWS V14.01,2013-04-02 18:40:00,
2013-04-02 15:00:00,40.0,20.4,29.86,WSW,248,23.0,34.0,45,0.00,,---,0.00,VWS V14.01,2013-04-02 19:00:00,
2013-04-02 16:10:00,40.7,21.0,29.86,WSW,248,24.0,38.0,45,0.00,,---,0.00,VWS V14.01,2013-04-02 20:10:00,
2013-04-02 17:00:00,41.1,21.9,29.86,WSW,248,21.0,33.0,46,0.00,,---,0.00,VWS V14.01,2013-04-02 21:00:00,
2013-04-02 17:10:00,41.3,19.4,29.87,WSW,248,21.0,33.0,41,0.00,,---,0.00,VWS V14.01,2013-04-02 21:10:00,
2013-04-02 17:20:00,41.1,18.6,29.87,West,270,24.0,38.0,40,0.00,,---,0.00,VWS V14.01,2013-04-02 21:20:00,
2013-04-02 18:00:00,40.3,19.6,29.89,WSW,248,20.0,30.0,43,0.00,,---,0.00,VWS V14.01,2013-04-02 22:00:00,
2013-04-02 18:10:00,40.1,20.0,29.90,West,270,21.0,33.0,44,0.00,,---,0.00,VWS V14.01,2013-04-02 22:10:00,
2013-04-02 18:20:00,40.0,19.3,29.90,West,270,19.0,34.0,43,0.00,,---,0.00,VWS V14.01,2013-04-02 22:20:00,
2013-04-02 18:30:00,39.6,18.4,29.91,WSW,248,22.0,37.0,42,0.00,,---,0.00,VWS V14.01,2013-04-02 22:30:00,
2013-04-02 18:40:00,39.3,19.2,29.91,West,270,20.0,34.0,44,0.00,,---,0.00,VWS V14.01,2013-04-02 22:40:00,
2013-04-02 19:20:00,38.0,18.0,29.92,West,270,18.0,32.0,44,0.00,,---,0.00,VWS V14.01,2013-04-02 23:20:00,
2013-04-02 19:30:00,37.9,17.4,29.92,West,270,17.0,30.0,43,0.00,,---,0.00,VWS V14.01,2013-04-02 23:30:00,
2013-04-02 19:40:00,37.8,19.4,29.92,West,270,15.0,30.0,47,0.00,,---,0.00,VWS V14.01,2013-04-02 23:40:00,
2013-04-02 19:50:00,37.8,17.9,29.93,West,270,16.0,26.0,44,0.00,,---,0.00,VWS V14.01,2013-04-02 23:50:00,
2013-04-02 20:20:00,37.6,16.6,29.94,WNW,292,18.0,29.0,42,0.00,,---,0.00,VWS V14.01,2013-04-03 00:20:00,
2013-04-02 21:00:00,37.3,16.9,29.96,WNW,292,16.0,27.0,43,0.00,,---,0.00,VWS V14.01,2013-04-03 01:00:00,
2013-04-02 21:50:00,36.9,17.6,29.98,West,270,15.0,28.0,45,0.00,,---,0.00,VWS V14.01,2013-04-03 01:50:00,
2013-04-02 22:00:00,36.9,17.6,29.97,WNW,292,17.0,28.0,45,0.00,,---,0.00,VWS V14.01,2013-04-03 02:00:00,
2013-04-02 22:30:00,36.8,16.4,29.97,WNW,292,18.0,25.0,43,0.00,,---,0.00,VWS V14.01,2013-04-03 02:30:00,
2013-04-02 22:40:00,36.6,17.8,29.97,WNW,292,16.0,26.0,46,0.00,,---,0.00,VWS V14.01,2013-04-03 02:40:00,
2013-04-02 23:00:00,36.5,16.7,29.98,WNW,292,17.0,27.0,44,0.00,,---,0.00,VWS V14.01,2013-04-03 03:00:00,
2013-04-02 23:10:00,36.4,16.6,29.98,WNW,292,18.0,31.0,44,0.00,,---,0.00,VWS V14.01,2013-04-03 03:10:00,
2013-04-02 23:20:00,36.4,17.1,29.98,WNW,292,16.0,27.0,45,0.00,,---,0.00,VWS V14.01,2013-04-03 03:20:00,
2013-04-02 23:30:00,36.3,17.0,29.98,West,270,14.0,24.0,45,0.00,,---,0.00,VWS V14.01,2013-04-03 03:30:00,
2013-04-02 23:40:00,36.1,16.8,29.98,WNW,292,15.0,30.0,45,0.00,,---,0.00,VWS V14.01,2013-04-03 03:40:00,
2013-04-02 23:50:00,36.0,16.7,29.98,WNW,292,14.0,26.0,45,0.00,,---,0.00,VWS V14.01,2013-04-03 03:50:00,